Weather at Langport Airstrip

Public forecast

Using degrees Celsius for public forecast. Weather courtesy of forecast.io.

Closest aviation weather report (METAR) to Langport Airstrip

Closest report is RNAS Yeovilton, 8.2 nm (15.3 km) ESE. Retrieved 2021/08/04 15:21 UTC (15 minutes ago):

EGDY 041521Z 21008KT 9999 FEW040 SCT060 20/13 Q1012 NOSIG RMK BLU BLU

Closest aviation forecast (TAF) to Langport Airstrip

Forecast is more than 12 hours old.

Closest forecast is RNAS Yeovilton, 8.2 nm (15.3 km) ESE. Retrieved 2020/10/05 06:30 UTC (10 months ago):

TAF TAF EGDY 051025Z 0506/0518 CNL